createdAt,value
2018-07-30T00:03:16.122Z,0
2018-07-30T00:13:31.527Z,0
2018-07-30T00:23:45.639Z,0
2018-07-30T00:33:59.857Z,0
2018-07-30T00:44:14.150Z,0
2018-07-30T00:54:28.897Z,0
2018-07-30T01:04:44.083Z,0
2018-07-30T01:14:58.380Z,0
2018-07-30T01:25:13.126Z,0
2018-07-30T01:35:28.378Z,0
2018-07-30T01:45:42.506Z,0
2018-07-30T01:55:56.531Z,0
2018-07-30T02:06:11.474Z,0
2018-07-30T02:16:25.796Z,0
2018-07-30T02:26:40.831Z,0
2018-07-30T02:36:56.092Z,0
2018-07-30T02:47:11.157Z,0
2018-07-30T02:57:26.304Z,0
2018-07-30T03:07:40.163Z,0
2018-07-30T03:17:54.208Z,0
2018-07-30T03:28:09.174Z,0
2018-07-30T03:38:24.472Z,0
2018-07-30T03:48:39.360Z,10
2018-07-30T03:58:53.273Z,20
2018-07-30T04:09:08.937Z,35
2018-07-30T04:19:24.103Z,50
2018-07-30T04:29:38.443Z,70
2018-07-30T04:39:52.576Z,85
2018-07-30T04:50:07.356Z,85
2018-07-30T05:00:21.580Z,115
2018-07-30T05:10:36.363Z,200
2018-07-30T05:20:51.325Z,175
2018-07-30T05:31:05.969Z,155
2018-07-30T05:41:21.730Z,155
2018-07-30T05:51:35.837Z,175
2018-07-30T06:01:50.746Z,220
2018-07-30T06:12:04.495Z,340
2018-07-30T06:22:18.947Z,260
2018-07-30T06:32:33.432Z,810
2018-07-30T06:42:48.695Z,350
2018-07-30T06:53:02.929Z,780
2018-07-30T07:03:18.869Z,930
2018-07-30T07:13:31.713Z,975
2018-07-30T07:23:47.125Z,1010
2018-07-30T07:34:02.835Z,1195
2018-07-30T07:44:17.394Z,1145
2018-07-30T07:54:31.417Z,1345
2018-07-30T08:04:46.113Z,1570
2018-07-30T08:15:00.749Z,780
2018-07-30T08:25:14.739Z,1580
2018-07-30T08:35:29.609Z,1705
2018-07-30T08:55:58.294Z,1765
2018-07-30T09:06:12.282Z,1660
2018-07-30T09:16:26.892Z,1545
2018-07-30T09:26:41.664Z,1880
2018-07-30T09:36:57.533Z,1825
2018-07-30T09:47:13.457Z,1735
2018-07-30T09:57:28.295Z,1780
2018-07-30T10:07:42.256Z,1720
2018-07-30T10:17:57.288Z,1745
2018-07-30T10:28:11.806Z,1975
2018-07-30T10:38:26.028Z,2030
2018-07-30T10:48:41.424Z,985
2018-07-30T10:58:55.803Z,2040
2018-07-30T11:09:10.039Z,715
2018-07-30T11:19:24.476Z,2050
2018-07-30T11:29:38.807Z,1950
2018-07-30T11:39:54.122Z,1825
2018-07-30T11:50:08.285Z,1025
2018-07-30T12:00:22.529Z,1890
2018-07-30T12:10:36.712Z,1685
2018-07-30T12:20:51.516Z,1850
2018-07-30T12:31:07.734Z,940
2018-07-30T12:41:22.503Z,855
2018-07-30T12:51:36.822Z,1005
2018-07-30T13:01:52.467Z,895
2018-07-30T13:12:08.179Z,2880
2018-07-30T13:22:22.326Z,2375
2018-07-30T13:32:36.430Z,2435
2018-07-30T13:42:50.443Z,2375
2018-07-30T13:53:05.816Z,1780
2018-07-30T14:03:20.105Z,2080
2018-07-30T14:13:35.811Z,760
2018-07-30T14:23:51.550Z,900
2018-07-30T14:34:06.242Z,1470
2018-07-30T14:44:20.790Z,1770
2018-07-30T14:54:36.377Z,845
2018-07-30T15:04:51.201Z,720
2018-07-30T15:15:06.669Z,1210
2018-07-30T15:25:21.094Z,635
2018-07-30T15:35:35.328Z,830
2018-07-30T15:45:49.503Z,1280
2018-07-30T15:56:04.928Z,1145
2018-07-30T16:06:19.741Z,1220
2018-07-30T16:16:35.494Z,680
2018-07-30T16:26:49.459Z,890
2018-07-30T16:37:05.002Z,975
2018-07-30T16:47:19.623Z,620
2018-07-30T16:57:35.186Z,1280
2018-07-30T17:07:50.157Z,420
2018-07-30T17:18:05.723Z,365
2018-07-30T17:28:20.368Z,350
2018-07-30T17:38:35.214Z,295
2018-07-30T17:48:49.937Z,245
2018-07-30T17:59:05.092Z,130
2018-07-30T18:09:19.427Z,95
2018-07-30T18:19:34.222Z,115
2018-07-30T18:29:48.117Z,115
2018-07-30T18:40:03.373Z,100
2018-07-30T18:50:17.259Z,75
2018-07-30T19:00:31.147Z,50
2018-07-30T19:10:46.007Z,30
2018-07-30T19:21:01.635Z,10
2018-07-30T19:31:17.176Z,5
2018-07-30T19:41:33.124Z,0
2018-07-30T19:51:48.498Z,0
2018-07-30T20:02:04.241Z,0
2018-07-30T20:12:18.785Z,0
2018-07-30T20:22:33.363Z,0
2018-07-30T20:32:48.745Z,0
2018-07-30T20:43:03.681Z,0
2018-07-30T20:53:18.701Z,0
2018-07-30T21:03:32.662Z,0
2018-07-30T21:13:47.920Z,0
2018-07-30T21:24:03.655Z,0
2018-07-30T21:34:18.162Z,0
2018-07-30T21:44:33.710Z,0
2018-07-30T21:54:47.842Z,0
2018-07-30T22:05:03.320Z,0
2018-07-30T22:15:18.529Z,0
2018-07-30T22:25:33.599Z,0
2018-07-30T22:35:47.772Z,0
2018-07-30T22:46:01.877Z,0
2018-07-30T22:56:16.896Z,0
2018-07-30T23:06:32.706Z,0
2018-07-30T23:16:48.090Z,0
2018-07-30T23:27:03.742Z,0
2018-07-30T23:37:18.632Z,0
2018-07-30T23:47:34.374Z,0
2018-07-30T23:57:49.647Z,0
